Time;durP1;ratioP1;P1;durP2;ratioP2;P2;SDS_P1;SDS_P2;PMS_P1;PMS_P2;Temp;Humidity;BMP_temperature;BMP_pressure;BME280_temperature;BME280_humidity;BME280_pressure;Samples;Min_cycle;Max_cycle;Signal;HPM_P1;HPM_P2
2023/12/22 00:01:41;;;;;;;25.70;4.15;;;;;;;;;;4984854;28;20140;-73
2023/12/22 00:04:07;;;;;;;17.02;4.07;;;;;;;;;;4985101;28;20050;-73
2023/12/22 00:06:33;;;;;;;24.17;4.32;;;;;;;;;;4985610;28;20552;-74
2023/12/22 00:08:59;;;;;;;17.42;3.90;;;;;;;;;;4980733;28;20064;-73
2023/12/22 00:11:25;;;;;;;19.70;4.05;;;;;;;;;;4985666;28;20046;-72
2023/12/22 00:13:51;;;;;;;26.13;4.47;;;;;;;;;;4985431;28;20129;-73
2023/12/22 00:16:17;;;;;;;16.52;4.60;;;;;;;;;;4981943;28;20141;-73
2023/12/22 00:18:44;;;;;;;29.70;5.88;;;;;;;;;;4982959;28;20076;-74
2023/12/22 00:21:11;;;;;;;17.80;3.90;;;7.10;99.90;;;;;;4982516;28;20667;-72
2023/12/22 00:23:37;;;;;;;26.70;5.35;;;;;;;;;;4982195;28;20053;-72
2023/12/22 00:26:03;;;;;;;25.83;5.13;;;;;;;;;;4982109;28;20073;-72
2023/12/22 00:28:31;;;;;;;28.67;4.85;;;;;;;;;;4982212;28;20054;-73
2023/12/22 00:30:58;;;;;;;14.35;3.42;;;;;;;;;;4981800;28;20061;-73
2023/12/22 00:33:24;;;;;;;17.95;3.30;;;;;;;;;;4982631;28;20054;-73
2023/12/22 00:35:50;;;;;;;8.07;3.00;;;;;;;;;;4982163;28;20047;-72
2023/12/22 00:38:16;;;;;;;22.33;4.72;;;;;;;;;;4981927;28;20567;-73
2023/12/22 00:40:42;;;;;;;26.27;4.57;;;;;;;;;;4981836;28;20073;-73
2023/12/22 00:43:08;;;;;;;17.35;3.90;;;;;;;;;;4982080;28;20050;-72
2023/12/22 00:45:34;;;;;;;26.45;4.57;;;;;;;;;;4981950;28;20046;-73
2023/12/22 00:48:00;;;;;;;19.88;4.20;;;;;;;;;;4982596;28;20120;-73
2023/12/22 00:50:26;;;;;;;16.15;3.10;;;;;;;;;;4981772;28;20046;-73
2023/12/22 00:52:52;;;;;;;27.08;4.63;;;;;;;;;;4981957;28;20480;-74
2023/12/22 00:55:18;;;;;;;20.15;4.85;;;;;;;;;;4982238;28;20066;-73
2023/12/22 00:57:44;;;;;;;19.83;4.70;;;;;;;;;;4981916;28;20054;-73
2023/12/22 01:00:12;;;;;;;28.60;4.88;;;;;;;;;;4982186;28;20525;-73
2023/12/22 01:02:38;;;;;;;24.02;3.40;;;;;;;;;;4983169;28;20050;-72
2023/12/22 01:05:04;;;;;;;11.63;3.58;;;;;;;;;;4982017;28;20806;-73
2023/12/22 01:07:30;;;;;;;21.95;3.30;;;;;;;;;;4981729;28;20506;-73
2023/12/22 01:10:01;;;;;;;17.38;3.90;;;;;;;;;;4982049;28;20136;-73
2023/12/22 01:12:28;;;;;;;17.42;3.75;;;;;;;;;;4984586;28;20124;-72
2023/12/22 01:14:54;;;;;;;20.00;3.70;;;;;;;;;;4986076;28;20078;-73
2023/12/22 01:17:20;;;;;;;24.25;4.95;;;;;;;;;;4983578;28;20057;-72
2023/12/22 01:19:46;;;;;;;19.98;4.47;;;;;;;;;;4985751;28;20050;-72
2023/12/22 01:22:12;;;;;;;14.50;3.40;;;;;;;;;;4985419;28;20125;-72
2023/12/22 01:24:40;;;;;;;23.35;2.80;;;;;;;;;;4985479;28;20087;-73
2023/12/22 01:27:07;;;;;;;15.38;3.92;;;;;;;;;;4985478;28;20077;-73
2023/12/22 01:29:33;;;;;;;17.70;4.40;;;;;;;;;;4985849;28;20501;-73
2023/12/22 01:31:59;;;;;;;18.35;3.20;;;;;;;;;;4985382;28;20053;-73
2023/12/22 01:34:25;;;;;;;14.63;3.90;;;;;;;;;;4981205;28;20568;-73
2023/12/22 01:36:51;;;;;;;15.55;3.33;;;;;;;;;;4985528;28;20114;-74
2023/12/22 01:39:17;;;;;;;13.85;3.47;;;;;;;;;;4985185;28;20113;-73
2023/12/22 01:41:43;;;;;;;20.83;4.05;;;;;;;;;;4984797;28;20093;-73
2023/12/22 01:44:09;;;;;;;19.33;4.00;;;;;;;;;;4975919;28;20128;-73
2023/12/22 01:46:36;;;;;;;17.40;4.07;;;;;;;;;;4985141;28;20046;-72
2023/12/22 01:49:03;;;;;;;18.75;4.85;;;;;;;;;;4984408;28;20446;-73
2023/12/22 01:51:30;;;;;;;18.20;3.85;;;;;;;;;;4985461;28;20049;-73
2023/12/22 01:53:56;;;;;;;23.45;4.07;;;;;;;;;;4985325;28;20045;-73
2023/12/22 01:56:22;;;;;;;23.08;4.25;;;;;;;;;;4982788;28;20837;-73
2023/12/22 01:58:48;;;;;;;18.75;3.67;;;;;;;;;;4984902;28;20053;-72
2023/12/22 02:01:14;;;;;;;29.40;5.32;;;;;;;;;;4981915;28;20050;-72
2023/12/22 02:03:40;;;;;;;20.90;4.20;;;;;;;;;;4984594;28;20049;-73
2023/12/22 02:06:06;;;;;;;21.55;4.72;;;;;;;;;;4985172;28;20140;-73
2023/12/22 02:08:33;;;;;;;18.25;2.92;;;;;;;;;;4984760;28;20041;-73
2023/12/22 02:10:59;;;;;;;21.85;3.35;;;;;;;;;;4985068;28;20069;-73
2023/12/22 02:13:25;;;;;;;19.13;3.22;;;;;;;;;;4985080;28;20062;-72
2023/12/22 02:15:56;;;;;;;19.55;3.45;;;;;;;;;;4983524;28;20077;-73
2023/12/22 02:18:25;;;;;;;21.63;3.08;;;;;;;;;;4983516;28;20061;-73
2023/12/22 02:20:51;;;;;;;14.82;2.53;;;;;;;;;;4983619;28;20049;-73
2023/12/22 02:23:17;;;;;;;17.80;3.88;;;;;;;;;;4982682;28;20046;-74
2023/12/22 02:25:43;;;;;;;17.48;2.20;;;;;;;;;;4980577;28;20056;-73
2023/12/22 02:28:11;;;;;;;16.33;2.58;;;;;;;;;;4980947;28;20046;-73
2023/12/22 02:30:46;;;;;;;20.88;3.13;;;;;;;;;;4981165;28;20150;-73
2023/12/22 02:33:13;;;;;;;12.27;2.83;;;;;;;;;;4982141;28;20046;-73
2023/12/22 02:35:41;;;;;;;9.48;2.40;;;;;;;;;;4982559;28;20093;-73
2023/12/22 02:38:08;;;;;;;8.27;2.13;;;;;;;;;;4982960;28;20056;-72
2023/12/22 02:40:34;;;;;;;13.45;2.47;;;;;;;;;;4983264;28;20049;-73
2023/12/22 02:43:02;;;;;;;7.15;2.00;;;;;;;;;;4983821;28;20530;-73
2023/12/22 02:45:30;;;;;;;9.80;2.35;;;;;;;;;;4983161;28;20046;-73
2023/12/22 02:47:56;;;;;;;21.20;3.42;;;;;;;;;;4983279;28;20054;-73
2023/12/22 02:50:22;;;;;;;9.38;2.28;;;;;;;;;;4984032;28;20053;-73
2023/12/22 02:52:48;;;;;;;10.35;2.45;;;;;;;;;;4983033;28;20046;-73
2023/12/22 02:55:14;;;;;;;9.45;2.72;;;;;;;;;;4983326;28;20061;-74
2023/12/22 02:57:40;;;;;;;10.98;2.33;;;;;;;;;;4983285;28;20038;-73
2023/12/22 03:00:07;;;;;;;11.20;2.30;;;;;;;;;;4982815;28;20545;-73
2023/12/22 03:02:33;;;;;;;16.15;1.98;;;;;;;;;;4983008;28;20050;-73
2023/12/22 03:04:59;;;;;;;12.23;3.97;;;;;;;;;;4982680;28;20124;-73
2023/12/22 03:07:25;;;;;;;12.10;2.08;;;;;;;;;;4984016;28;20049;-73
2023/12/22 03:09:51;;;;;;;9.68;2.38;;;;;;;;;;4966102;28;20050;-73
2023/12/22 03:12:17;;;;;;;9.35;2.00;;;;;;;;;;4982713;28;20422;-72
2023/12/22 03:14:43;;;;;;;3.07;1.70;;;;;;;;;;4929269;28;1078389;-73
2023/12/22 03:17:10;;;;;;;6.20;1.33;;;;;;;;;;4983374;28;20867;-73
2023/12/22 03:19:36;;;;;;;4.43;1.40;;;;;;;;;;4983186;28;20085;-72
2023/12/22 03:22:02;;;;;;;10.68;2.25;;;;;;;;;;4983389;28;20133;-73
2023/12/22 03:24:28;;;;;;;7.75;1.58;;;;;;;;;;4980807;28;20045;-73
2023/12/22 03:26:55;;;;;;;9.35;2.50;;;;;;;;;;4983390;28;20042;-73
2023/12/22 03:29:21;;;;;;;7.47;1.85;;;;;;;;;;4982991;28;20797;-72
2023/12/22 03:31:47;;;;;;;13.35;2.17;;;;;;;;;;4982980;28;20046;-73
2023/12/22 03:34:13;;;;;;;13.40;2.40;;;;;;;;;;4982572;28;20050;-73
2023/12/22 03:36:39;;;;;;;14.98;3.10;;;;;;;;;;4983023;28;20069;-73
2023/12/22 03:39:06;;;;;;;9.68;2.08;;;;;;;;;;4980893;28;20042;-73
2023/12/22 03:41:32;;;;;;;15.90;2.40;;;;;;;;;;4983198;28;20057;-72
2023/12/22 03:43:58;;;;;;;18.23;2.60;;;;;;;;;;4982712;28;20104;-72
2023/12/22 03:46:24;;;;;;;18.85;2.35;;;;;;;;;;4984002;28;20046;-73
2023/12/22 03:48:53;;;;;;;19.30;3.72;;;;;;;;;;4982876;28;20042;-73
2023/12/22 03:51:19;;;;;;;13.27;2.88;;;;;;;;;;4982577;28;20049;-73
2023/12/22 03:53:45;;;;;;;11.63;3.70;;;;;;;;;;4982709;28;20047;-72
2023/12/22 03:56:11;;;;;;;13.98;4.88;;;;;;;;;;4982969;28;20061;-73
2023/12/22 03:58:38;;;;;;;15.13;2.72;;;;;;;;;;4980954;28;20450;-73
2023/12/22 04:01:04;;;;;;;14.48;2.85;;;;;;;;;;4981861;28;20042;-72
2023/12/22 04:03:30;;;;;;;18.85;3.33;;;;;;;;;;4982382;28;20053;-73
2023/12/22 04:05:56;;;;;;;15.20;3.22;;;;;;;;;;4982532;28;20058;-73
2023/12/22 04:08:22;;;;;;;18.73;4.97;;;;;;;;;;4982452;28;20082;-73
2023/12/22 04:10:48;;;;;;;13.85;3.00;;;;;;;;;;4982563;28;20125;-72
2023/12/22 04:13:14;;;;;;;15.88;4.97;;;;;;;;;;4982917;28;20077;-72
2023/12/22 04:15:40;;;;;;;14.40;2.80;;;;;;;;;;4982709;28;20054;-72
2023/12/22 04:18:06;;;;;;;14.07;2.88;;;;;;;;;;4983717;28;20528;-73
2023/12/22 04:20:32;;;;;;;15.60;3.47;;;;;;;;;;4982716;28;20069;-73
2023/12/22 04:22:59;;;;;;;19.15;2.80;;;;;;;;;;4982327;28;20692;-72
2023/12/22 04:25:25;;;;;;;12.38;3.40;;;;;;;;;;4982289;28;20050;-72
2023/12/22 04:27:51;;;;;;;18.50;3.25;;;;;;;;;;4982270;28;20860;-73
2023/12/22 04:30:18;;;;;;;15.75;3.70;;;;;;;;;;4982361;28;20044;-73
2023/12/22 04:32:44;;;;;;;18.80;3.28;;;;;;;;;;4982674;28;20135;-72
2023/12/22 04:35:10;;;;;;;17.90;3.45;;;;;;;;;;4982471;28;20061;-73
2023/12/22 04:37:36;;;;;;;20.17;3.90;;;;;;;;;;4982309;28;20445;-73
2023/12/22 04:40:02;;;;;;;24.33;3.10;;;;;;;;;;4981691;28;20058;-73
2023/12/22 04:42:28;;;;;;;20.88;4.35;;;;;;;;;;4982184;28;20171;-73
2023/12/22 04:44:54;;;;;;;18.27;5.00;;;;;;;;;;4981236;28;20053;-73
2023/12/22 04:47:20;;;;;;;18.10;3.85;;;;;;;;;;4981846;28;20737;-73
2023/12/22 04:49:46;;;;;;;16.02;3.47;;;;;;;;;;4981803;28;20050;-72
2023/12/22 04:52:13;;;;;;;15.45;3.47;;;;;;;;;;4982046;28;20050;-73
2023/12/22 04:54:39;;;;;;;12.50;2.97;;;;;;;;;;4982276;28;20104;-73
2023/12/22 04:57:05;;;;;;;14.40;2.83;;;;;;;;;;4982079;28;20541;-73
2023/12/22 04:59:31;;;;;;;22.00;3.47;;;;;;;;;;4982371;28;20054;-73
2023/12/22 05:01:57;;;;;;;14.95;3.28;;;;;;;;;;4981702;28;20072;-73
2023/12/22 05:04:23;;;;;;;16.58;2.47;;;;;;;;;;4980860;28;20081;-73
2023/12/22 05:06:49;;;;;;;14.70;3.20;;;;;;;;;;4966097;28;20129;-73
2023/12/22 05:09:16;;;;;;;11.10;3.33;;;;;;;;;;4981846;28;20486;-73
2023/12/22 05:11:42;;;;;;;13.93;2.75;;;;;;;;;;4981895;28;20149;-72
2023/12/22 05:14:08;;;;;;;12.15;2.92;;;;;;;;;;4982183;28;20061;-73
2023/12/22 05:16:34;;;;;;;11.05;3.22;;;;;;;;;;4985091;28;20057;-74
2023/12/22 05:19:00;;;;;;;15.65;2.90;;;;;;;;;;4984961;28;20049;-73
2023/12/22 05:21:27;;;;;;;16.02;3.33;;;;;;;;;;4984631;28;20488;-73
2023/12/22 05:23:53;;;;;;;21.15;4.25;;;;;;;;;;4984546;28;20822;-73
2023/12/22 05:26:20;;;;;;;26.08;4.00;;;;;;;;;;4984431;28;20101;-74
2023/12/22 05:28:46;;;;;;;19.88;4.25;;;;;;;;;;4984137;28;20149;-73
2023/12/22 05:31:13;;;;;;;22.13;3.97;;;;;;;;;;4984648;28;20133;-74
2023/12/22 05:33:39;;;;;;;16.83;3.53;;;;;;;;;;4984373;28;20049;-72
2023/12/22 05:36:05;;;;;;;17.88;2.90;;;;;;;;;;4984676;28;20057;-74
2023/12/22 05:38:31;;;;;;;16.52;3.45;;;;;;;;;;4984750;28;20073;-72
2023/12/22 05:40:57;;;;;;;16.08;4.32;;;;;;;;;;4984692;28;20101;-73
2023/12/22 05:43:23;;;;;;;22.80;5.35;;;;;;;;;;4984139;28;20717;-73
2023/12/22 05:45:49;;;;;;;11.35;3.17;;;;;;;;;;4984433;28;20739;-72
2023/12/22 05:48:15;;;;;;;20.38;2.90;;;;;;;;;;5001906;28;20046;-73
2023/12/22 05:50:41;;;;;;;17.77;3.72;;;;;;;;;;4984561;28;20061;-73
2023/12/22 05:53:07;;;;;;;22.15;5.80;;;;;;;;;;4984818;28;20141;-73
2023/12/22 05:55:33;;;;;;;21.85;4.28;;;;;;;;;;4984286;28;20048;-73
2023/12/22 05:57:59;;;;;;;17.75;3.70;;;;;;;;;;4986117;28;20409;-72
2023/12/22 06:00:26;;;;;;;15.73;3.30;;;;;;;;;;4987573;28;20042;-74
2023/12/22 06:02:52;;;;;;;19.98;4.13;;;;;;;;;;5005947;28;20046;-72
2023/12/22 06:05:18;;;;;;;11.10;2.97;;;;;;;;;;4985743;28;20049;-73
2023/12/22 06:07:44;;;;;;;17.98;3.08;;;;;;;;;;4988131;28;20050;-72
2023/12/22 06:10:10;;;;;;;18.10;2.80;;;;;;;;;;5006010;28;20149;-72
2023/12/22 06:12:37;;;;;;;20.33;3.85;;;;;;;;;;4988137;28;20053;-72
2023/12/22 06:15:03;;;;;;;20.70;3.00;;;;;;;;;;4987707;28;20064;-72
2023/12/22 06:17:29;;;;;;;15.95;3.83;;;;;;;;;;4988186;28;20156;-72
2023/12/22 06:19:55;;;;;;;20.98;3.95;;;;;;;;;;4987596;28;20042;-72
2023/12/22 06:22:21;;;;;;;11.32;3.17;;;;;;;;;;4987524;28;20421;-72
2023/12/22 06:24:47;;;;;;;14.10;3.15;;;;;;;;;;4987593;28;20132;-72
2023/12/22 06:27:13;;;;;;;13.57;3.25;;;;;;;;;;4987476;28;20050;-74
2023/12/22 06:29:40;;;;;;;25.05;2.90;;;;;;;;;;4986471;28;20056;-73
2023/12/22 06:32:06;;;;;;;17.10;3.42;;;;;;;;;;4987219;28;20180;-73
2023/12/22 06:34:32;;;;;;;12.82;3.20;;;;;;;;;;4987825;28;20037;-72
2023/12/22 06:36:58;;;;;;;10.85;3.38;;;;;;;;;;4987492;28;20038;-72
2023/12/22 06:39:24;;;;;;;13.73;2.65;;;;;;;;;;4987680;28;20049;-73
2023/12/22 06:41:51;;;;;;;24.13;3.38;;;;;;;;;;4997783;28;20046;-72
2023/12/22 06:44:17;;;;;;;13.20;3.60;;;;;;;;;;4987591;28;20045;-73
2023/12/22 06:46:43;;;;;;;10.93;2.90;;;;;;;;;;4987494;28;20037;-74
2023/12/22 06:49:09;;;;;;;15.48;3.45;;;;;;;;;;4984176;28;20046;-73
2023/12/22 06:51:35;;;;;;;14.05;3.03;;;;;;;;;;5005117;28;20052;-72
2023/12/22 06:54:01;;;;;;;15.57;3.13;;;;;;;;;;4987178;28;20057;-74
2023/12/22 06:56:28;;;;;;;16.95;3.50;;;;;;;;;;4987349;28;20176;-73
2023/12/22 06:58:57;;;;;;;17.15;3.30;;;;;;;;;;4987891;28;20053;-73
2023/12/22 07:01:24;;;;;;;16.40;4.65;;;;;;;;;;4987227;28;20054;-72
2023/12/22 07:03:50;;;;;;;15.10;3.53;;;;;;;;;;4987073;28;20054;-72
2023/12/22 07:06:17;;;;;;;18.90;3.15;;;;;;;;;;4983987;28;20053;-73
2023/12/22 07:08:43;;;;;;;20.48;3.85;;;;;;;;;;4986090;28;20053;-73
2023/12/22 07:11:10;;;;;;;15.23;2.88;;;7.60;99.90;;;;;;5004694;28;20129;-74
2023/12/22 07:13:36;;;;;;;17.08;2.75;;;;;;;;;;4987414;28;20808;-72
2023/12/22 07:16:02;;;;;;;11.93;2.97;;;;;;;;;;4986958;28;20057;-73
2023/12/22 07:18:31;;;;;;;14.38;3.00;;;;;;;;;;4986816;28;20050;-72
2023/12/22 07:20:58;;;;;;;9.98;2.70;;;;;;;;;;4986965;28;20037;-72
2023/12/22 07:23:25;;;;;;;18.63;3.20;;;;;;;;;;4987127;28;20042;-73
2023/12/22 07:25:51;;;;;;;16.95;2.97;;;;;;;;;;5004858;28;20050;-72
2023/12/22 07:28:17;;;;;;;25.88;4.75;;;;;;;;;;4986974;28;20050;-73
2023/12/22 07:30:43;;;;;;;20.10;3.38;;;;;;;;;;5005356;28;20871;-72
2023/12/22 07:33:09;;;;;;;26.90;3.53;;;;;;;;;;5004414;28;20059;-72
2023/12/22 07:35:35;;;;;;;20.60;3.47;;;;;;;;;;4987142;28;20489;-72
2023/12/22 07:38:04;;;;;;;15.38;2.90;;;;;;;;;;4985787;28;20042;-72
2023/12/22 07:40:30;;;;;;;19.40;3.38;;;;;;;;;;5004515;28;20037;-72
2023/12/22 07:42:56;;;;;;;11.10;3.30;;;;;;;;;;4985472;28;20053;-71
2023/12/22 07:45:22;;;;;;;13.93;3.42;;;;;;;;;;5003478;28;20041;-71
2023/12/22 07:47:49;;;;;;;15.70;3.63;;;;;;;;;;4983086;28;20770;-72
2023/12/22 07:50:15;;;;;;;11.65;3.10;;;;;;;;;;4986282;28;20046;-72
2023/12/22 07:52:41;;;;;;;16.02;3.58;;;;;;;;;;4985605;28;20077;-72
2023/12/22 07:55:09;;;;;;;16.33;3.45;;;;;;;;;;5003719;28;20085;-71
2023/12/22 07:57:35;;;;;;;13.50;3.50;;;;;;;;;;4985134;28;20468;-71
2023/12/22 08:00:01;;;;;;;10.48;2.78;;;;;;;;;;5002664;28;20048;-72
2023/12/22 08:02:28;;;;;;;19.00;4.10;;;;;;;;;;4985249;28;20038;-72
2023/12/22 08:04:54;;;;;;;23.17;3.53;;;;;;;;;;4984542;28;20108;-71
2023/12/22 08:07:20;;;;;;;14.07;3.45;;;;;;;;;;4998020;28;20041;-73
2023/12/22 08:09:46;;;;;;;16.65;3.15;;;;;;;;;;4984452;28;20045;-72
2023/12/22 08:12:12;;;;;;;9.88;3.08;;;;;;;;;;4984132;28;20555;-72
2023/12/22 08:14:38;;;;;;;21.23;3.50;;;;;;;;;;5002392;28;20144;-72
2023/12/22 08:17:04;;;;;;;14.48;3.78;;;;;;;;;;4999693;28;20133;-72
2023/12/22 08:19:30;;;;;;;8.55;2.97;;;;;;;;;;4982936;28;20423;-72
2023/12/22 08:21:56;;;;;;;12.43;2.88;;;;;;;;;;5002712;28;20046;-72
2023/12/22 08:24:22;;;;;;;14.52;2.63;;;;;;;;;;4984648;28;20387;-72
2023/12/22 08:26:48;;;;;;;10.38;1.90;;;;;;;;;;4984507;28;20049;-71
2023/12/22 08:29:15;;;;;;;9.90;1.88;;;;;;;;;;4985708;28;20465;-72
2023/12/22 08:31:41;;;;;;;4.53;1.60;;;;;;;;;;4982756;28;20457;-70
2023/12/22 08:34:07;;;;;;;7.30;1.58;;;;;;;;;;4984824;28;20049;-71
2023/12/22 08:36:33;;;;;;;7.35;1.95;;;;;;;;;;4984043;28;20034;-71
2023/12/22 08:38:59;;;;;;;9.38;2.17;;;;;;;;;;4984083;28;20048;-71
2023/12/22 08:41:26;;;;;;;7.75;1.60;;;;;;;;;;4984518;28;20041;-71
2023/12/22 08:43:52;;;;;;;8.48;2.00;;;;;;;;;;4982292;28;20069;-71
2023/12/22 08:46:18;;;;;;;6.03;1.50;;;;;;;;;;5000449;28;20456;-71
2023/12/22 08:48:44;;;;;;;4.30;2.03;;;;;;;;;;4984544;28;20103;-70
2023/12/22 08:51:10;;;;;;;3.17;1.25;;;;;;;;;;4985487;28;20045;-70
2023/12/22 08:53:37;;;;;;;7.78;1.95;;;;;;;;;;4984961;28;20088;-70
2023/12/22 08:56:07;;;;;;;7.95;1.98;;;;;;;;;;4984655;28;20050;-71
2023/12/22 08:58:33;;;;;;;5.50;1.55;;;;;;;;;;4983827;28;20046;-71
2023/12/22 09:00:59;;;;;;;9.50;2.03;;;;;;;;;;4983430;28;20096;-71
2023/12/22 09:03:26;;;;;;;5.90;1.58;;;;;;;;;;5001372;28;20046;-71
2023/12/22 09:05:52;;;;;;;6.10;1.73;;;;;;;;;;4986546;28;20057;-71
2023/12/22 09:08:18;;;;;;;7.32;1.50;;;;;;;;;;5002000;28;20037;-71
2023/12/22 09:10:45;;;;;;;5.07;1.63;;;;;;;;;;4974920;28;20057;-71
2023/12/22 09:13:11;;;;;;;2.53;1.25;;;;;;;;;;4984199;28;20046;-72
2023/12/22 09:15:37;;;;;;;5.03;1.85;;;;;;;;;;4980803;28;20062;-71
2023/12/22 09:18:03;;;;;;;6.35;1.42;;;;;;;;;;4982121;28;20050;-72
2023/12/22 09:20:30;;;;;;;8.60;1.70;;;;;;;;;;4982487;28;20041;-69
2023/12/22 09:22:56;;;;;;;9.73;2.10;;;;;;;;;;4983053;28;20096;-69
2023/12/22 09:25:24;;;;;;;9.07;2.38;;;;;;;;;;4979055;28;20108;-68
2023/12/22 09:27:50;;;;;;;9.07;1.92;;;;;;;;;;4981330;28;20822;-68
2023/12/22 09:30:16;;;;;;;8.00;2.10;;;;;;;;;;4975865;28;20042;-69
2023/12/22 09:32:42;;;;;;;5.75;2.15;;;;;;;;;;4981645;28;20801;-69
2023/12/22 09:35:08;;;;;;;11.57;1.83;;;;;;;;;;4986539;28;20049;-69
2023/12/22 09:37:34;;;;;;;9.02;1.60;;;;;;;;;;4985169;28;20104;-69
2023/12/22 09:40:00;;;;;;;11.90;2.97;;;;;;;;;;4986280;28;20386;-69
2023/12/22 09:42:26;;;;;;;14.10;2.47;;;;;;;;;;4986674;28;20683;-70
2023/12/22 09:44:54;;;;;;;10.30;2.15;;;;;;;;;;4982072;28;20046;-70
2023/12/22 09:47:21;;;;;;;7.75;1.90;;;;;;;;;;4983509;28;20050;-70
2023/12/22 09:49:48;;;;;;;7.82;2.33;;;;;;;;;;4984716;28;20144;-70
2023/12/22 09:52:14;;;;;;;13.80;3.08;;;;;;;;;;4986091;28;20047;-70
2023/12/22 09:54:40;;;;;;;13.98;3.08;;;;;;;;;;4985073;28;20061;-70
2023/12/22 09:57:07;;;;;;;10.52;2.92;;;;;;;;;;4984663;28;20047;-70
2023/12/22 09:59:34;;;;;;;7.05;2.13;;;;;;;;;;4984509;28;20042;-70
2023/12/22 10:02:02;;;;;;;14.63;3.38;;;7.30;99.90;;;;;;4984453;28;20085;-70
2023/12/22 10:04:28;;;;;;;16.35;2.88;;;;;;;;;;4983666;28;20046;-70
2023/12/22 10:06:57;;;;;;;10.55;2.33;;;;;;;;;;4984169;28;20057;-70
2023/12/22 10:09:23;;;;;;;12.50;2.58;;;;;;;;;;4985744;28;20046;-70
2023/12/22 10:11:53;;;;;;;11.85;2.47;;;;;;;;;;4985469;28;20692;-70
2023/12/22 10:14:22;;;;;;;12.55;2.45;;;;;;;;;;4986171;28;20042;-70
2023/12/22 10:16:52;;;;;;;14.35;3.58;;;;;;;;;;4970953;28;20057;-70
2023/12/22 10:19:18;;;;;;;13.63;2.53;;;;;;;;;;4987919;28;20045;-70
2023/12/22 10:21:44;;;;;;;13.73;2.35;;;;;;;;;;4987386;28;20046;-70
2023/12/22 10:24:30;;;;;;;9.05;3.03;;;;;;;;;;4987530;28;20046;-70
2023/12/22 10:26:56;;;;;;;13.43;3.08;;;;;;;;;;4986430;28;20061;-70
2023/12/22 10:29:22;;;;;;;10.60;2.28;;;;;;;;;;4988057;28;20049;-70
2023/12/22 10:31:48;;;;;;;13.40;2.63;;;;;;;;;;4987600;28;20599;-70
2023/12/22 10:34:14;;;;;;;9.38;2.30;;;;;;;;;;4987661;28;20052;-70
2023/12/22 10:36:40;;;;;;;7.28;2.92;;;;;;;;;;5004891;28;20042;-70
2023/12/22 10:39:06;;;;;;;8.35;1.80;;;;;;;;;;5005276;28;20699;-70
2023/12/22 10:41:32;;;;;;;13.27;2.70;;;;;;;;;;4987036;28;20044;-70
2023/12/22 10:43:59;;;;;;;8.70;2.03;;;;;;;;;;4987208;28;20046;-70
2023/12/22 10:46:25;;;;;;;8.00;1.88;;;;;;;;;;4987057;28;20053;-70
2023/12/22 10:48:53;;;;;;;8.80;2.05;;;;;;;;;;4987316;28;20046;-70
2023/12/22 10:51:19;;;;;;;6.32;1.95;;;;;;;;;;4986872;28;20077;-70
2023/12/22 10:53:45;;;;;;;7.43;1.83;;;;;;;;;;5004303;28;20137;-70
2023/12/22 10:56:12;;;;;;;5.93;1.98;;;;;;;;;;4987321;28;20057;-70
2023/12/22 10:58:39;;;;;;;6.90;1.98;;;;;;;;;;4987461;28;20058;-70
2023/12/22 11:01:05;;;;;;;4.93;1.25;;;;;;;;;;4987102;28;20054;-70
2023/12/22 11:03:33;;;;;;;7.25;2.17;;;;;;;;;;5005145;28;20100;-70
2023/12/22 11:06:01;;;;;;;8.00;1.48;;;;;;;;;;4984886;28;20053;-70
2023/12/22 11:08:29;;;;;;;3.78;1.42;;;;;;;;;;5004709;28;20049;-70
2023/12/22 11:10:57;;;;;;;9.05;1.48;;;;;;;;;;4987092;28;20162;-70
2023/12/22 11:13:24;;;;;;;9.75;1.52;;;;;;;;;;4986493;28;20041;-70
2023/12/22 11:15:50;;;;;;;8.98;1.73;;;;;;;;;;4986732;28;20053;-70
2023/12/22 11:18:18;;;;;;;6.38;1.35;;;;;;;;;;4986367;28;20096;-70
2023/12/22 11:20:44;;;;;;;6.82;1.75;;;;;;;;;;4986403;28;20073;-70
2023/12/22 11:23:11;;;;;;;9.77;1.85;;;;;;;;;;4986291;28;20060;-70
2023/12/22 11:25:37;;;;;;;8.35;1.83;;;;;;;;;;4986692;28;20540;-70
2023/12/22 11:28:06;;;;;;;5.93;1.45;;;;;;;;;;4985748;28;20049;-70
2023/12/22 11:30:32;;;;;;;12.73;2.45;;;;;;;;;;4986252;28;20062;-70
2023/12/22 11:32:58;;;;;;;6.63;1.60;;;;;;;;;;4986186;28;20174;-70
2023/12/22 11:35:25;;;;;;;6.88;1.60;;;;;;;;;;4985418;28;20057;-70
2023/12/22 11:37:51;;;;;;;6.95;2.05;;;;;;;;;;4985956;28;20046;-70
2023/12/22 11:40:17;;;;;;;9.60;2.03;;;;;;;;;;5002708;28;20730;-70
2023/12/22 11:42:46;;;;;;;11.30;1.98;;;;;;;;;;5003720;28;20072;-70
2023/12/22 11:45:16;;;;;;;6.00;2.10;;;;;;;;;;4985416;28;20060;-70
2023/12/22 11:47:42;;;;;;;10.75;2.35;;;;;;;;;;4986067;28;20101;-70
2023/12/22 11:50:12;;;;;;;3.83;1.55;;;;;;;;;;4985389;28;20053;-70
2023/12/22 11:52:41;;;;;;;10.75;1.83;;;;;;;;;;4969495;28;20085;-70
2023/12/22 11:55:07;;;;;;;7.63;2.20;;;;;;;;;;4984730;28;20456;-70
2023/12/22 11:57:37;;;;;;;9.40;1.98;;;;;;;;;;4983774;28;20034;-70
2023/12/22 12:00:27;;;;;;;8.07;1.98;;;;;;;;;;4985556;28;20112;-70
2023/12/22 12:02:56;;;;;;;10.98;1.98;;;;;;;;;;4975147;28;20471;-70
2023/12/22 12:05:23;;;;;;;6.85;1.90;;;;;;;;;;4983671;28;20053;-70
2023/12/22 12:07:49;;;;;;;11.00;1.95;;;;;;;;;;5003285;28;20042;-70
2023/12/22 12:10:51;;;;;;;4.90;2.05;;;;;;;;;;4981685;28;20603;-70
2023/12/22 12:13:22;;;;;;;12.65;2.42;;;;;;;;;;4925401;29;20873;-71
2023/12/22 12:15:48;;;;;;;8.18;2.00;;;;;;;;;;4973525;28;20073;-70
2023/12/22 12:18:15;;;;;;;6.10;2.28;;;;;;;;;;4985605;28;20468;-70
2023/12/22 12:20:41;;;;;;;14.57;2.47;;;;;;;;;;4985675;28;20049;-70
2023/12/22 12:23:07;;;;;;;5.63;1.25;;;;;;;;;;4982352;28;20046;-72
2023/12/22 12:25:33;;;;;;;6.75;2.03;;;;;;;;;;4966657;28;20133;-73
2023/12/22 12:28:03;;;;;;;6.28;2.03;;;;;;;;;;4985507;28;20569;-71
2023/12/22 12:30:29;;;;;;;8.27;2.45;;;;;;;;;;4985359;28;20056;-70
2023/12/22 12:33:02;;;;;;;11.55;2.58;;;;;;;;;;5003714;28;20042;-70
2023/12/22 12:35:29;;;;;;;7.28;1.77;;;;;;;;;;4984223;28;20730;-71
2023/12/22 12:37:55;;;;;;;11.07;1.85;;;;;;;;;;4983340;28;20145;-71
2023/12/22 12:40:24;;;;;;;6.05;1.85;;;;;;;;;;5002108;28;20042;-72
2023/12/22 12:42:51;;;;;;;7.82;2.10;;;;;;;;;;4984779;28;20042;-72
2023/12/22 12:45:22;;;;;;;10.50;1.73;;;;;;;;;;4996068;28;20064;-71
2023/12/22 12:48:00;;;;;;;8.23;2.30;;;;;;;;;;4983464;28;20467;-71
2023/12/22 12:50:27;;;;;;;7.35;1.83;;;;;;;;;;4984696;28;20054;-72
2023/12/22 12:52:56;;;;;;;12.88;2.15;;;;;;;;;;4985161;28;20049;-71
2023/12/22 12:55:23;;;;;;;6.63;1.85;;;;;;;;;;4985398;28;20045;-73
2023/12/22 12:57:52;;;;;;;5.78;1.40;;;;;;;;;;5002816;28;20046;-70
2023/12/22 13:00:28;;;;;;;9.63;2.33;;;;;;;;;;4985804;28;20041;-71
2023/12/22 13:03:00;;;;;;;13.65;1.73;;;;;;;;;;5002599;28;20042;-71
2023/12/22 13:05:26;;;;;;;7.38;1.60;;;;;;;;;;4998438;28;20575;-72
2023/12/22 13:07:52;;;;;;;8.82;1.77;;;;;;;;;;4988785;28;20096;-71
2023/12/22 13:10:21;;;;;;;9.63;1.63;;;;;;;;;;4989037;28;20053;-72
2023/12/22 13:12:48;;;;;;;9.25;2.55;;;;;;;;;;4988706;28;20572;-72
2023/12/22 13:15:14;;;;;;;10.35;2.50;;;;;;;;;;4987821;28;20058;-71
2023/12/22 13:17:40;;;;;;;12.93;2.17;;;;;;;;;;4988816;28;20408;-71
2023/12/22 13:20:06;;;;;;;7.85;1.85;;;;;;;;;;4987737;28;20057;-72
2023/12/22 13:22:33;;;;;;;10.70;2.10;;;;;;;;;;4988833;28;20053;-72
2023/12/22 13:25:00;;;;;;;12.85;1.83;;;;;;;;;;4988477;28;20056;-73
2023/12/22 13:27:26;;;;;;;10.00;2.50;;;;;;;;;;4988511;28;20057;-71
2023/12/22 13:29:53;;;;;;;6.63;1.45;;;;;;;;;;4989764;28;20050;-69
2023/12/22 13:32:20;;;;;;;10.25;2.22;;;;;;;;;;4988252;28;20483;-70
2023/12/22 13:34:56;;;;;;;11.55;2.67;;;8.10;99.90;;;;;;4988153;28;20058;-71
2023/12/22 13:37:26;;;;;;;9.02;2.20;;;;;;;;;;4983540;28;20053;-71
2023/12/22 13:39:52;;;;;;;11.60;3.72;;;;;;;;;;4986864;28;20116;-71
2023/12/22 13:42:19;;;;;;;12.68;3.35;;;;;;;;;;4988919;28;20042;-71
2023/12/22 13:44:49;;;;;;;5.88;2.03;;;;;;;;;;4987022;28;20128;-71
2023/12/22 13:47:16;;;;;;;9.38;2.05;;;;;;;;;;4987954;28;20061;-72
2023/12/22 13:49:43;;;;;;;9.18;1.70;;;;;;;;;;4988329;28;20124;-71
2023/12/22 13:52:09;;;;;;;13.27;2.50;;;;;;;;;;4966542;28;20614;-71
2023/12/22 13:54:35;;;;;;;11.95;2.60;;;;;;;;;;5005665;28;20052;-70
2023/12/22 13:57:01;;;;;;;15.75;1.70;;;;;;;;;;4986739;28;20045;-73
2023/12/22 13:59:34;;;;;;;6.60;1.90;;;;;;;;;;4972041;28;20096;-71
2023/12/22 14:02:00;;;;;;;9.57;2.20;;;;;;;;;;4970724;28;20084;-72
2023/12/22 14:04:29;;;;;;;6.10;1.65;;;;;;;;;;4988982;28;20072;-71
2023/12/22 14:06:55;;;;;;;5.82;1.30;;;;;;;;;;4986328;28;20075;-74
2023/12/22 14:09:24;;;;;;;11.07;1.50;;;;;;;;;;4988696;28;20050;-72
2023/12/22 14:11:50;;;;;;;7.95;2.38;;;;;;;;;;4972140;28;20049;-71
2023/12/22 14:14:18;;;;;;;6.07;1.33;;;;;;;;;;4987954;28;20056;-71
2023/12/22 14:16:44;;;;;;;5.35;1.20;;;;;;;;;;4980809;28;20099;-72
2023/12/22 14:19:10;;;;;;;3.65;1.77;;;;;;;;;;4987494;28;20497;-72
2023/12/22 14:21:36;;;;;;;3.33;1.10;;;;;;;;;;4987890;28;20056;-70
2023/12/22 14:24:03;;;;;;;1.65;0.63;;;;;;;;;;4986362;28;20050;-71
2023/12/22 14:26:35;;;;;;;4.13;0.90;;;;;;;;;;5004414;28;20052;-76
2023/12/22 14:29:01;;;;;;;2.95;1.10;;;;;;;;;;4987509;28;20046;-77
2023/12/22 14:31:34;;;;;;;2.20;1.02;;;;;;;;;;4973888;28;20053;-78